createdAt,value
2022-08-22T00:00:25.112Z,38.12
2022-08-22T00:02:44.018Z,33.85
2022-08-22T00:03:17.429Z,38.07
2022-08-22T00:05:57.475Z,37.97
2022-08-22T00:08:39.598Z,38.35
2022-08-22T00:11:30.497Z,37.72
2022-08-22T00:14:12.180Z,37.66
2022-08-22T00:16:54.628Z,37.73
2022-08-22T00:19:41.749Z,37.90
2022-08-22T00:22:20.904Z,37.63
2022-08-22T00:25:26.117Z,37.96
2022-08-22T00:28:06.506Z,37.96
2022-08-22T00:30:44.573Z,38.13
2022-08-22T00:33:34.928Z,38.07
2022-08-22T00:36:33.771Z,38.06
2022-08-22T00:39:13.142Z,38.63
2022-08-22T00:42:29.335Z,37.78
2022-08-22T00:45:16.918Z,38.24
2022-08-22T00:48:10.546Z,38.13
2022-08-22T00:50:49.436Z,38.71
2022-08-22T00:53:37.757Z,38.84
2022-08-22T00:56:47.385Z,38.59
2022-08-22T00:59:28.608Z,38.83
2022-08-22T01:01:55.417Z,38.95
2022-08-22T01:04:47.179Z,39.41
2022-08-22T01:07:41.920Z,39.02
2022-08-22T01:10:30.320Z,39.12
2022-08-22T01:13:15.153Z,40.67
2022-08-22T01:15:43.554Z,42.18
2022-08-22T01:18:46.061Z,41.43
2022-08-22T01:21:41.822Z,42.03
2022-08-22T01:25:01.909Z,41.29
2022-08-22T01:27:48.903Z,42.61
2022-08-22T01:30:44.636Z,42.34
2022-08-22T01:33:48.804Z,42.33
2022-08-22T01:36:40.425Z,43.22
2022-08-22T01:39:21.073Z,42.71
2022-08-22T01:42:17.074Z,42.48
2022-08-22T01:45:38.134Z,41.95
2022-08-22T01:48:26.056Z,42.92
2022-08-22T01:51:21.166Z,42.46
2022-08-22T01:54:03.425Z,42.95
2022-08-22T01:56:40.109Z,43.59
2022-08-22T01:59:21.101Z,44.85
2022-08-22T02:02:45.787Z,44.51
2022-08-22T02:05:27.697Z,44.83
2022-08-22T02:08:24.169Z,45.17
2022-08-22T02:11:04.891Z,45.08
2022-08-22T02:14:03.595Z,44.70
2022-08-22T02:16:40.288Z,44.80
2022-08-22T02:19:16.040Z,44.70
2022-08-22T02:22:01.681Z,44.96
2022-08-22T02:24:34.117Z,44.98
2022-08-22T02:27:20.161Z,45.13
2022-08-22T02:29:58.432Z,45.43
2022-08-22T02:32:40.476Z,45.53
2022-08-22T02:35:14.360Z,43.99
2022-08-22T02:37:48.849Z,45.16
2022-08-22T02:40:41.890Z,44.97
2022-08-22T02:43:12.850Z,45.85
2022-08-22T02:46:08.940Z,45.70
2022-08-22T02:48:47.973Z,46.01
2022-08-22T02:51:53.840Z,45.51
2022-08-22T02:54:35.726Z,45.68
2022-08-22T02:57:22.987Z,45.42
2022-08-22T03:00:31.207Z,45.60
2022-08-22T03:02:59.169Z,45.31
2022-08-22T03:05:38.293Z,45.49
2022-08-22T03:08:12.877Z,45.61
2022-08-22T03:10:45.796Z,45.36
2022-08-22T03:13:38.901Z,44.71
2022-08-22T03:16:31.842Z,44.67
2022-08-22T03:19:24.329Z,45.04
2022-08-22T03:22:03.146Z,45.16
2022-08-22T03:24:56.998Z,45.51
2022-08-22T03:27:33.897Z,45.15
2022-08-22T03:30:32.117Z,45.43
2022-08-22T03:33:14.237Z,45.25
2022-08-22T03:35:47.098Z,45.15
2022-08-22T03:38:23.668Z,45.33
2022-08-22T03:41:08.851Z,44.78
2022-08-22T03:44:13.028Z,45.00
2022-08-22T03:47:01.639Z,45.32
2022-08-22T03:49:47.117Z,44.96
2022-08-22T03:52:57.141Z,44.56
2022-08-22T03:55:43.096Z,44.82
2022-08-22T03:58:47.476Z,44.69
2022-08-22T04:01:17.427Z,44.50
2022-08-22T04:03:56.232Z,44.32
2022-08-22T04:06:44.739Z,44.32
2022-08-22T04:09:27.055Z,43.30
2022-08-22T04:12:20.418Z,43.38
2022-08-22T04:14:50.268Z,43.42
2022-08-22T04:17:38.794Z,43.42
2022-08-22T04:20:21.026Z,43.83
2022-08-22T04:22:52.621Z,43.70
2022-08-22T04:25:29.941Z,43.69
2022-08-22T04:28:05.586Z,43.56
2022-08-22T04:30:56.269Z,43.14
2022-08-22T04:33:25.923Z,43.48
2022-08-22T04:36:07.874Z,43.64
2022-08-22T04:38:39.695Z,42.67
2022-08-22T04:41:15.482Z,43.49
2022-08-22T04:43:53.513Z,43.36
2022-08-22T04:46:47.868Z,43.30
2022-08-22T04:49:29.365Z,43.13
2022-08-22T04:52:06.099Z,43.67
2022-08-22T04:54:38.830Z,43.09
2022-08-22T04:57:20.230Z,42.99
2022-08-22T04:59:47.398Z,43.13
2022-08-22T05:02:22.890Z,43.02
2022-08-22T05:05:04.234Z,43.19
2022-08-22T05:07:44.590Z,43.12
2022-08-22T05:10:19.604Z,43.04
2022-08-22T05:12:53.981Z,43.24
2022-08-22T05:15:26.423Z,43.37
2022-08-22T05:18:00.031Z,43.03
2022-08-22T05:20:28.870Z,42.86
2022-08-22T05:23:17.383Z,42.63
2022-08-22T05:25:49.653Z,42.34
2022-08-22T05:28:44.601Z,42.54
2022-08-22T05:31:32.011Z,42.67
2022-08-22T05:34:04.815Z,42.48
2022-08-22T05:36:37.943Z,41.97
2022-08-22T05:39:16.201Z,42.16
2022-08-22T05:41:44.745Z,42.17
2022-08-22T05:44:26.084Z,41.75
2022-08-22T05:47:29.923Z,41.52
2022-08-22T05:50:08.811Z,41.94
2022-08-22T05:53:08.458Z,42.03
2022-08-22T05:56:03.113Z,41.64
2022-08-22T05:58:44.901Z,41.95
2022-08-22T06:01:34.159Z,41.68
2022-08-22T06:04:12.346Z,41.69
2022-08-22T06:07:01.648Z,41.89
2022-08-22T06:09:46.316Z,42.43
2022-08-22T06:12:53.319Z,42.01
2022-08-22T06:15:27.603Z,41.93
2022-08-22T06:18:07.414Z,41.87
2022-08-22T06:21:06.598Z,41.72
2022-08-22T06:23:44.381Z,41.87
2022-08-22T06:26:20.443Z,41.69
2022-08-22T06:28:54.467Z,42.02
2022-08-22T06:31:35.923Z,41.53
2022-08-22T06:34:13.713Z,41.62
2022-08-22T06:36:44.250Z,41.36
2022-08-22T06:39:25.441Z,41.11
2022-08-22T06:42:18.217Z,41.37
2022-08-22T06:44:50.967Z,41.37
2022-08-22T06:47:23.558Z,41.60
2022-08-22T06:49:57.240Z,41.58
2022-08-22T06:52:27.274Z,41.62
2022-08-22T06:55:06.967Z,41.62
2022-08-22T06:57:37.542Z,41.48
2022-08-22T07:00:12.101Z,41.24
2022-08-22T07:02:42.629Z,41.40
2022-08-22T07:05:22.034Z,41.27
2022-08-22T07:07:50.705Z,41.03
2022-08-22T07:10:18.373Z,41.11
2022-08-22T07:12:49.310Z,40.98
2022-08-22T07:15:56.336Z,41.07
2022-08-22T07:18:26.968Z,41.27
2022-08-22T07:23:42.062Z,40.81
2022-08-22T07:26:28.153Z,40.65
2022-08-22T07:29:07.817Z,40.79
2022-08-22T07:31:44.730Z,40.76
2022-08-22T07:34:46.512Z,40.20
2022-08-22T07:37:28.250Z,40.20
2022-08-22T07:40:21.433Z,40.39
2022-08-22T07:42:57.708Z,40.77
2022-08-22T07:45:36.863Z,40.64
2022-08-22T07:48:06.537Z,40.31
2022-08-22T07:50:51.512Z,39.80
2022-08-22T07:53:50.159Z,40.07
2022-08-22T07:56:22.499Z,39.88
2022-08-22T07:58:56.230Z,39.88
2022-08-22T08:01:25.499Z,39.61
2022-08-22T08:04:06.646Z,39.63
2022-08-22T08:06:35.303Z,39.93
2022-08-22T08:09:03.677Z,39.27
2022-08-22T08:11:38.953Z,39.90
2022-08-22T08:14:08.752Z,39.98
2022-08-22T08:16:57.800Z,39.74
2022-08-22T08:19:25.487Z,39.92
2022-08-22T08:21:55.816Z,39.80
2022-08-22T08:24:29.114Z,39.44
2022-08-22T08:27:25.975Z,39.13
2022-08-22T08:29:59.360Z,38.92
2022-08-22T08:32:31.181Z,38.81
2022-08-22T08:34:59.436Z,38.71
2022-08-22T08:37:41.523Z,38.84
2022-08-22T08:40:26.309Z,38.24
2022-08-22T08:43:31.325Z,38.20
2022-08-22T08:46:07.063Z,37.68
2022-08-22T08:49:08.022Z,37.79
2022-08-22T08:52:04.545Z,37.55
2022-08-22T08:54:58.284Z,37.30
2022-08-22T08:57:47.279Z,36.60
2022-08-22T09:00:17.580Z,36.23
2022-08-22T09:03:15.822Z,36.10
2022-08-22T09:06:18.533Z,35.92
2022-08-22T09:08:55.143Z,35.67
2022-08-22T09:11:31.553Z,34.89
2022-08-22T09:14:22.933Z,35.13
2022-08-22T09:17:17.634Z,34.40
2022-08-22T09:19:56.704Z,34.53
2022-08-22T09:22:51.240Z,34.66
2022-08-22T09:25:43.746Z,34.60
2022-08-22T09:28:34.002Z,34.83
2022-08-22T09:31:44.846Z,34.53
2022-08-22T09:34:40.476Z,34.53
2022-08-22T09:37:29.086Z,34.20
2022-08-22T09:40:16.999Z,34.09
2022-08-22T09:42:56.099Z,34.33
2022-08-22T09:45:41.453Z,33.79
2022-08-22T09:48:34.700Z,33.59
2022-08-22T09:51:31.476Z,33.76
2022-08-22T09:54:31.150Z,33.25
2022-08-22T09:57:09.001Z,32.89
2022-08-22T09:59:59.244Z,32.01
2022-08-22T10:02:36.627Z,32.35
2022-08-22T10:05:40.421Z,32.96
2022-08-22T10:08:32.250Z,32.80
2022-08-22T10:11:23.975Z,32.73
2022-08-22T10:14:00.574Z,32.29
2022-08-22T10:17:05.426Z,32.11
2022-08-22T10:19:46.862Z,31.17
2022-08-22T10:22:41.130Z,31.32
2022-08-22T10:25:36.780Z,29.93
2022-08-22T10:28:23.969Z,28.23
2022-08-22T10:31:19.304Z,27.15
2022-08-22T10:33:59.449Z,26.02
2022-08-22T10:36:49.954Z,24.58
2022-08-22T10:39:24.756Z,24.26
2022-08-22T10:42:06.113Z,24.97
2022-08-22T10:44:43.368Z,25.33
2022-08-22T10:47:19.693Z,24.90
2022-08-22T10:49:52.915Z,24.60
2022-08-22T10:52:24.117Z,24.43
2022-08-22T10:55:09.992Z,24.33
2022-08-22T10:58:06.357Z,23.98
2022-08-22T11:00:55.223Z,23.65
2022-08-22T11:03:42.716Z,23.28
2022-08-22T11:06:33.688Z,23.57
2022-08-22T11:09:14.221Z,23.85
2022-08-22T11:11:54.235Z,23.70
2022-08-22T11:14:50.797Z,23.59
2022-08-22T11:17:29.930Z,23.19
2022-08-22T11:20:27.009Z,23.58
2022-08-22T11:23:34.897Z,24.21
2022-08-22T11:26:33.537Z,24.24
2022-08-22T11:29:29.506Z,23.21
2022-08-22T11:32:19.533Z,23.26
2022-08-22T11:35:09.041Z,23.09
2022-08-22T11:37:45.114Z,23.67
2022-08-22T11:40:20.254Z,23.45
2022-08-22T11:42:55.790Z,23.79
2022-08-22T11:45:34.682Z,22.92
2022-08-22T11:48:16.559Z,22.38
2022-08-22T11:50:49.343Z,21.60
2022-08-22T11:53:24.170Z,22.28
2022-08-22T11:55:54.072Z,22.41
2022-08-22T11:58:33.192Z,22.55
2022-08-22T12:01:18.362Z,22.63
2022-08-22T12:03:58.556Z,22.42
2022-08-22T12:06:56.265Z,22.36
2022-08-22T12:09:35.920Z,22.74
2022-08-22T12:12:25.989Z,23.07
2022-08-22T12:15:21.455Z,23.59
2022-08-22T12:18:07.212Z,24.76
2022-08-22T12:21:04.500Z,24.48
2022-08-22T12:23:53.140Z,26.04
2022-08-22T12:26:26.008Z,26.45
2022-08-22T12:29:16.792Z,26.91
2022-08-22T12:31:58.873Z,28.10
2022-08-22T12:34:47.310Z,28.52
2022-08-22T12:37:53.101Z,28.52
2022-08-22T12:40:38.839Z,28.57
2022-08-22T12:43:18.751Z,28.95
2022-08-22T12:45:54.006Z,28.77
2022-08-22T12:48:52.219Z,28.61
2022-08-22T12:51:44.369Z,28.34
2022-08-22T12:54:30.414Z,28.44
2022-08-22T12:57:24.077Z,28.89
2022-08-22T12:59:58.317Z,28.97
2022-08-22T13:02:33.066Z,28.51
2022-08-22T13:05:24.972Z,28.33
2022-08-22T13:08:04.607Z,28.50
2022-08-22T13:10:41.030Z,28.31
2022-08-22T13:13:12.694Z,28.49
2022-08-22T13:15:53.835Z,28.23
2022-08-22T13:18:30.608Z,28.39
2022-08-22T13:21:02.622Z,28.62
2022-08-22T13:23:43.443Z,29.31
2022-08-22T13:26:32.176Z,28.72
2022-08-22T13:29:25.744Z,28.75
2022-08-22T13:32:01.893Z,29.23
2022-08-22T13:34:44.573Z,29.68
2022-08-22T13:37:28.780Z,29.87
2022-08-22T13:40:05.923Z,30.07
2022-08-22T13:42:40.167Z,30.43
2022-08-22T13:45:15.601Z,30.29
2022-08-22T13:48:11.428Z,30.21
2022-08-22T13:51:02.216Z,30.42
2022-08-22T13:53:41.617Z,30.69
2022-08-22T13:56:21.130Z,30.55
2022-08-22T13:58:52.826Z,30.78
2022-08-22T14:01:35.993Z,31.00
2022-08-22T14:04:28.823Z,30.96
2022-08-22T14:07:04.382Z,31.18
2022-08-22T14:10:00.154Z,31.39
2022-08-22T14:12:51.109Z,31.08
2022-08-22T14:15:32.063Z,31.23
2022-08-22T14:18:11.965Z,31.26
2022-08-22T14:20:41.153Z,31.99
2022-08-22T14:23:14.115Z,31.64
2022-08-22T14:25:43.768Z,31.70
2022-08-22T14:28:32.228Z,31.93
2022-08-22T14:31:14.377Z,31.45
2022-08-22T14:33:52.750Z,31.85
2022-08-22T14:36:45.831Z,32.17
2022-08-22T14:39:37.152Z,31.76
2022-08-22T14:42:15.405Z,32.09
2022-08-22T14:45:06.537Z,31.80
2022-08-22T14:48:30.396Z,31.66
2022-08-22T14:50:56.434Z,31.60
2022-08-22T14:53:26.553Z,31.95
2022-08-22T14:56:17.984Z,31.41
2022-08-22T14:58:48.020Z,31.74
2022-08-22T15:01:18.939Z,31.86
2022-08-22T15:04:01.448Z,31.86
2022-08-22T15:06:57.881Z,32.04
2022-08-22T15:09:52.453Z,32.11
2022-08-22T15:12:34.668Z,32.33
2022-08-22T15:15:06.737Z,32.42
2022-08-22T15:17:38.785Z,32.12
2022-08-22T15:20:35.226Z,31.88
2022-08-22T15:23:16.456Z,31.52
2022-08-22T15:25:47.009Z,31.82
2022-08-22T15:28:20.116Z,31.01
2022-08-22T15:30:59.347Z,31.50
2022-08-22T15:33:43.345Z,31.25
2022-08-22T15:36:26.393Z,30.98
2022-08-22T15:38:56.719Z,30.86
2022-08-22T15:41:36.735Z,30.42
2022-08-22T15:44:14.708Z,30.33
2022-08-22T15:46:57.919Z,30.30
2022-08-22T15:49:35.963Z,30.14
2022-08-22T15:52:15.062Z,29.88
2022-08-22T15:54:54.210Z,29.95
2022-08-22T15:57:38.926Z,30.15
2022-08-22T16:00:45.075Z,29.65
2022-08-22T16:03:30.982Z,29.64
2022-08-22T16:06:07.600Z,29.74
2022-08-22T16:08:37.263Z,29.25
2022-08-22T16:11:04.035Z,29.66
2022-08-22T16:13:30.928Z,29.81
2022-08-22T16:16:07.119Z,29.97
2022-08-22T16:18:33.943Z,30.47
2022-08-22T16:21:27.164Z,30.49
2022-08-22T16:23:54.238Z,30.60
2022-08-22T16:26:24.002Z,30.66
2022-08-22T16:28:58.771Z,30.79
2022-08-22T16:31:37.724Z,30.97
2022-08-22T16:34:16.702Z,31.14
2022-08-22T16:36:51.645Z,31.20
2022-08-22T16:39:21.341Z,31.44
2022-08-22T16:41:54.332Z,31.40
2022-08-22T16:44:43.113Z,31.23
2022-08-22T16:47:15.316Z,31.62
2022-08-22T16:49:51.245Z,31.37
2022-08-22T16:52:21.285Z,31.53
2022-08-22T16:54:58.848Z,31.62
2022-08-22T16:57:33.350Z,31.79
2022-08-22T17:00:05.147Z,31.87
2022-08-22T17:03:08.472Z,31.85
2022-08-22T17:06:13.105Z,32.12
2022-08-22T17:09:03.539Z,32.46
2022-08-22T17:11:45.600Z,32.59
2022-08-22T17:15:04.093Z,32.53
2022-08-22T17:17:46.011Z,33.15
2022-08-22T17:20:26.458Z,33.37
2022-08-22T17:23:00.132Z,33.63
2022-08-22T17:25:47.141Z,33.40
2022-08-22T17:28:16.610Z,33.75
2022-08-22T17:30:58.217Z,33.44
2022-08-22T17:33:56.078Z,33.54
2022-08-22T17:36:41.959Z,34.00
2022-08-22T17:40:19.754Z,33.68
2022-08-22T17:43:08.084Z,34.06
2022-08-22T17:45:59.613Z,34.29
2022-08-22T17:48:39.700Z,34.44
2022-08-22T17:51:28.517Z,34.40
2022-08-22T17:54:15.557Z,34.66
2022-08-22T17:56:52.460Z,34.83
2022-08-22T17:59:39.737Z,35.16
2022-08-22T18:02:16.460Z,35.33
2022-08-22T18:05:04.579Z,34.98
2022-08-22T18:07:46.397Z,35.52
2022-08-22T18:10:19.700Z,34.84
2022-08-22T18:12:54.729Z,35.44
2022-08-22T18:15:45.212Z,35.44
2022-08-22T18:18:30.369Z,35.54
2022-08-22T18:21:11.121Z,36.03
2022-08-22T18:23:44.917Z,35.90
2022-08-22T18:26:48.884Z,36.21
2022-08-22T18:29:52.036Z,36.03
2022-08-22T18:32:28.461Z,36.43
2022-08-22T18:35:02.564Z,36.65
2022-08-22T18:37:31.312Z,36.66
2022-08-22T18:40:06.318Z,36.75
2022-08-22T18:42:48.461Z,36.73
2022-08-22T18:45:44.739Z,36.74
2022-08-22T18:48:59.486Z,36.76
2022-08-22T18:51:38.377Z,37.09
2022-08-22T18:54:05.462Z,37.05
2022-08-22T18:56:35.619Z,37.33
2022-08-22T18:59:28.236Z,37.49
2022-08-22T19:02:36.819Z,37.20
2022-08-22T19:05:28.612Z,37.10
2022-08-22T19:08:33.497Z,37.26
2022-08-22T19:11:09.176Z,37.64
2022-08-22T19:13:45.782Z,37.78
2022-08-22T19:16:22.765Z,37.66
2022-08-22T19:19:01.066Z,37.64
2022-08-22T19:21:51.146Z,37.79
2022-08-22T19:24:20.984Z,37.90
2022-08-22T19:27:09.721Z,38.09
2022-08-22T19:29:36.473Z,38.36
2022-08-22T19:32:12.789Z,38.25
2022-08-22T19:34:46.819Z,38.03
2022-08-22T19:37:32.410Z,38.50
2022-08-22T19:40:44.524Z,38.04
2022-08-22T19:43:32.436Z,38.22
2022-08-22T19:46:03.840Z,38.56
2022-08-22T19:48:52.624Z,38.44
2022-08-22T19:51:19.369Z,38.91
2022-08-22T19:54:01.052Z,38.86
2022-08-22T19:56:51.120Z,38.80
2022-08-22T19:59:20.099Z,38.94
2022-08-22T20:02:07.544Z,39.21
2022-08-22T20:05:02.634Z,39.09
2022-08-22T20:07:53.093Z,39.10
2022-08-22T20:10:23.768Z,39.54
2022-08-22T20:13:02.266Z,39.34
2022-08-22T20:15:31.960Z,39.74
2022-08-22T20:18:47.218Z,39.75
2022-08-22T20:20:59.562Z,39.51
2022-08-22T20:23:31.629Z,39.96
2022-08-22T20:25:59.005Z,40.07
2022-08-22T20:28:38.100Z,39.64
2022-08-22T20:31:11.643Z,39.84
2022-08-22T20:33:42.574Z,39.95
2022-08-22T20:36:27.250Z,40.40
2022-08-22T20:39:00.192Z,40.34
2022-08-22T20:41:40.483Z,40.48
2022-08-22T20:44:47.552Z,40.36
2022-08-22T20:47:26.429Z,40.22
2022-08-22T20:50:11.961Z,40.63
2022-08-22T20:52:51.975Z,40.75
2022-08-22T20:55:31.879Z,40.58
2022-08-22T20:58:03.808Z,41.04
2022-08-22T21:00:35.685Z,41.13
2022-08-22T21:03:33.399Z,41.02
2022-08-22T21:06:14.354Z,41.39
2022-08-22T21:08:43.838Z,41.39
2022-08-22T21:11:39.353Z,41.53
2022-08-22T21:14:21.491Z,41.80
2022-08-22T21:16:48.801Z,41.81
2022-08-22T21:19:21.252Z,41.99
2022-08-22T21:21:48.101Z,41.98
2022-08-22T21:24:15.309Z,42.15
2022-08-22T21:26:54.522Z,42.21
2022-08-22T21:29:26.666Z,42.38
2022-08-22T21:32:14.504Z,42.35
2022-08-22T21:34:44.096Z,42.34
2022-08-22T21:37:18.574Z,42.90
2022-08-22T21:39:53.093Z,42.79
2022-08-22T21:42:35.882Z,42.67
2022-08-22T21:45:09.540Z,43.17
2022-08-22T21:47:40.053Z,43.01
2022-08-22T21:50:12.687Z,43.03
2022-08-22T21:52:53.740Z,43.20
2022-08-22T21:55:43.034Z,42.83
2022-08-22T21:58:12.777Z,43.22
2022-08-22T22:01:02.627Z,43.17
2022-08-22T22:03:38.055Z,43.07
2022-08-22T22:06:06.627Z,43.25
2022-08-22T22:08:33.794Z,43.05
2022-08-22T22:11:04.704Z,43.17
2022-08-22T22:13:33.295Z,42.99
2022-08-22T22:16:00.465Z,43.10
2022-08-22T22:18:32.134Z,42.89
2022-08-22T22:20:59.697Z,43.32
2022-08-22T22:23:27.013Z,43.15
2022-08-22T22:25:56.384Z,43.29
2022-08-22T22:28:40.721Z,43.29
2022-08-22T22:31:08.116Z,43.23
2022-08-22T22:33:38.462Z,43.37
2022-08-22T22:36:10.115Z,43.56
2022-08-22T22:38:38.581Z,43.41
2022-08-22T22:41:05.529Z,44.02
2022-08-22T22:43:32.788Z,43.95
2022-08-22T22:45:59.654Z,44.05
2022-08-22T22:48:26.632Z,44.43
2022-08-22T22:50:54.151Z,44.34
2022-08-22T22:53:37.923Z,44.43
2022-08-22T22:56:06.861Z,44.67
2022-08-22T22:58:36.693Z,44.96
2022-08-22T23:01:25.972Z,44.79
2022-08-22T23:03:56.945Z,45.32
2022-08-22T23:06:26.137Z,45.85
2022-08-22T23:08:53.672Z,45.74
2022-08-22T23:11:24.217Z,45.96
2022-08-22T23:13:51.599Z,45.87
2022-08-22T23:16:23.580Z,46.10
2022-08-22T23:18:50.903Z,46.35
2022-08-22T23:21:24.157Z,46.54
2022-08-22T23:23:51.590Z,46.72
2022-08-22T23:26:18.416Z,46.73
2022-08-22T23:28:45.431Z,47.03
2022-08-22T23:31:19.804Z,46.88
2022-08-22T23:33:46.877Z,46.80
2022-08-22T23:36:20.477Z,47.05
2022-08-22T23:38:48.752Z,47.27
2022-08-22T23:41:17.750Z,47.48
2022-08-22T23:43:47.782Z,47.53
2022-08-22T23:46:16.381Z,48.02
2022-08-22T23:48:43.587Z,48.05
2022-08-22T23:51:12.069Z,47.80
2022-08-22T23:53:39.207Z,48.05
2022-08-22T23:56:19.772Z,47.96
2022-08-22T23:58:49.133Z,48.16
